Time;durP1;ratioP1;P1;durP2;ratioP2;P2;SDS_P1;SDS_P2;PMS_P1;PMS_P2;Temp;Humidity;BMP_temperature;BMP_pressure;BME280_temperature;BME280_humidity;BME280_pressure;Samples;Min_cycle;Max_cycle;Signal;HPM_P1;HPM_P2
2023/04/13 00:02:02;;;;;;;;;;;;;;;4.59;54.25;101358.13;10534694;28;20082;-80
2023/04/13 00:07:04;;;;;;;;;;;;;;;4.55;55.02;101365.06;10494007;28;19927;-80
2023/04/13 00:12:07;;;;;;;;;;;;;;;4.42;55.39;101363.28;10494729;28;19920;-80
2023/04/13 00:17:09;;;;;;;;;;;;;;;4.28;56.08;101369.88;10517004;28;19928;-80
2023/04/13 00:22:11;;;;;;;;;;;;;;;4.17;56.87;101365.19;10537082;28;19926;-80
2023/04/13 00:27:13;;;;;;;;;;;;;;;3.96;58.03;101393.53;10498948;28;20489;-81
2023/04/13 00:32:15;;;;;;;;;;;;;;;3.76;58.90;101390.09;10488530;28;19955;-80
2023/04/13 00:37:19;;;;;;;;;;;;;;;3.65;59.93;101409.81;10536155;28;19928;-80
2023/04/13 00:42:21;;;;;;;;;;;;;;;3.51;60.16;101406.31;10458890;28;1147819;-81
2023/04/13 00:47:27;;;;;;;;;;;;;;;3.35;61.10;101417.66;10516198;28;19931;-81
2023/04/13 00:52:29;;;;;;;;;;;;;;;3.26;61.78;101398.88;10496646;28;19920;-81
2023/04/13 00:57:32;;;;;;;;;;;;;;;3.16;62.26;101379.53;10516212;28;20022;-82
2023/04/13 01:02:34;;;;;;;;;;;;;;;3.09;62.77;101394.16;10527788;28;19927;-80
2023/04/13 01:07:46;;;;;;;;;;;;;;;2.99;63.57;101411.72;10550155;28;19943;-80
2023/04/13 01:12:56;;;;;;;;;;;;;;;2.88;64.57;101416.94;10530611;28;19927;-80
2023/04/13 01:18:07;;;;;;;;;;;;;;;2.91;64.22;101421.94;10506580;28;20394;-80
2023/04/13 01:23:14;;;;;;;;;;;;;;;2.70;65.50;101412.19;10504761;28;19916;-80
2023/04/13 01:28:20;;;;;;;;;;;;;;;2.63;65.77;101419.50;10501611;28;19927;-80
2023/04/13 01:33:24;;;;;;;;;;;;;;;2.59;65.97;101405.50;10484500;28;19927;-81
2023/04/13 01:38:27;;;;;;;;;;;;;;;2.56;66.65;101400.50;10504071;28;19920;-80
2023/04/13 01:43:33;;;;;;;;;;;;;;;2.44;67.22;101429.28;10521831;28;19926;-80
2023/04/13 01:48:49;;;;;;;;;;;;;;;2.39;67.87;101434.47;10512924;28;20020;-80
2023/04/13 01:54:19;;;;;;;;;;;;;;;2.44;67.95;101429.28;10519287;28;19923;-81
2023/04/13 01:59:22;;;;;;;;;;;;;;;2.35;68.61;101457.59;10496479;28;19927;-79
2023/04/13 02:04:25;;;;;;;;;;;;;;;2.20;69.07;101475.91;10532168;28;19923;-80
2023/04/13 02:09:28;;;;;;;;;;;;;;;2.13;69.52;101465.09;10504760;28;20340;-80
2023/04/13 02:14:30;;;;;;;;;;;;;;;2.12;70.00;101458.00;10514403;28;19928;-79
2023/04/13 02:19:33;;;;;;;;;;;;;;;2.04;70.43;101472.53;10515608;28;20415;-79
2023/04/13 02:24:39;;;;;;;;;;;;;;;2.11;70.37;101459.03;10524930;28;19950;-79
2023/04/13 02:29:41;;;;;;;;;;;;;;;2.26;69.55;101454.28;10522016;28;20406;-80
2023/04/13 02:34:43;;;;;;;;;;;;;;;2.03;70.78;101476.28;10531035;28;19924;-80
2023/04/13 02:39:46;;;;;;;;;;;;;;;1.87;71.39;101465.84;10545611;28;19920;-80
2023/04/13 02:44:51;;;;;;;;;;;;;;;1.81;71.89;101507.25;10524841;28;19931;-80
2023/04/13 02:49:54;;;;;;;;;;;;;;;1.84;72.38;101498.72;10499622;28;19916;-80
2023/04/13 02:55:08;;;;;;;;;;;;;;;1.66;73.04;101484.91;10512690;28;19927;-80
2023/04/13 03:00:31;;;;;;;;;;;;;;;1.63;73.32;101496.16;10523104;28;20299;-80
2023/04/13 03:05:39;;;;;;;;;;;;;;;1.65;73.18;101510.31;10487719;28;19931;-80
2023/04/13 03:10:45;;;;;;;;;;;;;;;1.63;73.50;101507.81;10491490;28;19924;-81
2023/04/13 03:15:47;;;;;;;;;;;;;;;1.62;73.74;101505.31;10515180;28;19920;-80
2023/04/13 03:20:51;;;;;;;;;;;;;;;1.83;72.76;101518.69;10505537;28;19939;-81
2023/04/13 03:25:55;;;;;;;;;;;;;;;1.67;73.43;101536.13;10486311;28;19967;-81
2023/04/13 03:30:58;;;;;;;;;;;;;;;1.62;73.74;101518.81;10512252;28;20284;-80
2023/04/13 03:36:01;;;;;;;;;;;;;;;1.51;74.38;101547.25;10511451;28;19920;-81
2023/04/13 03:41:08;;;;;;;;;;;;;;;1.60;73.93;101523.59;10505487;28;19927;-81
2023/04/13 03:46:12;;;;;;;;;;;;;;;1.82;73.42;101533.28;10476923;28;19921;-80
2023/04/13 03:51:15;;;;;;;;;;;;;;;2.04;72.81;101542.94;10499088;28;19924;-80
2023/04/13 03:56:23;;;;;;;;;;;;;;;1.92;72.61;101541.88;10520860;28;19942;-80
2023/04/13 04:01:26;;;;;;;;;;;;;;;1.82;72.63;101581.97;10514710;28;19927;-79
2023/04/13 04:06:30;;;;;;;;;;;;;;;1.84;73.36;101557.44;10521557;28;19926;-80
2023/04/13 04:11:43;;;;;;;;;;;;;;;1.93;72.61;101561.66;10522209;28;19927;-80
2023/04/13 04:16:51;;;;;;;;;;;;;;;2.32;71.58;101550.09;10475609;28;19924;-82
2023/04/13 04:21:56;;;;;;;;;;;;;;;2.52;70.49;101588.91;10451908;28;19935;-79
2023/04/13 04:27:01;;;;;;;;;;;;;;;2.57;69.84;101575.56;10516906;28;19920;-80
2023/04/13 04:32:04;;;;;;;;;;;;;;;2.89;69.26;101581.25;10476906;28;19927;-79
2023/04/13 04:37:06;;;;;;;;;;;;;;;2.36;70.36;101573.03;10489255;28;20311;-79
2023/04/13 04:42:10;;;;;;;;;;;;;;;2.19;71.20;101563.59;10468839;28;20371;-79
2023/04/13 04:47:15;;;;;;;;;;;;;;;2.08;72.01;101562.31;10489022;28;19921;-80
2023/04/13 04:52:34;;;;;;;;;;;;;;;2.16;71.33;101578.38;10492765;28;20382;-81
2023/04/13 04:57:38;;;;;;;;;;;;;;;2.92;69.61;101569.97;10481132;28;19920;-81
2023/04/13 05:02:41;;;;;;;;;;;;;;;3.72;66.90;101571.56;10491060;28;19927;-79
2023/04/13 05:07:46;;;;;;;;;;;;;;;4.22;64.54;101598.97;10518653;28;19930;-79
2023/04/13 05:12:49;;;;;;;;;;;;;;;4.87;62.35;101620.59;10478978;28;19920;-79
2023/04/13 05:17:52;;;;;;;;;;;;;;;4.81;62.01;101595.06;10522899;28;20368;-79
2023/04/13 05:22:56;;;;;;;;;;;;;;;4.87;61.32;101586.06;10569168;28;19963;-79
2023/04/13 05:27:58;;;;;;;;;;;;;;;5.27;60.79;101626.56;10491299;28;19928;-79
2023/04/13 05:33:05;;;;;;;;;;;;;;;5.24;59.49;101610.69;10511962;28;19927;-79
2023/04/13 05:38:08;;;;;;;;;;;;;;;5.59;58.45;101660.00;10527411;28;19920;-80
2023/04/13 05:43:11;;;;;;;;;;;;;;;5.53;58.68;101615.41;10482517;28;19927;-80
2023/04/13 05:48:19;;;;;;;;;;;;;;;5.55;58.07;101628.81;10512042;28;19920;-79
2023/04/13 05:53:22;;;;;;;;;;;;;;;5.44;58.28;101644.00;10490759;28;20296;-79
2023/04/13 05:58:29;;;;;;;;;;;;;;;5.49;57.89;101629.69;10489427;28;19927;-79
2023/04/13 06:03:44;;;;;;;;;;;;;;;5.68;57.25;101624.06;10498358;28;19927;-80
2023/04/13 06:08:47;;;;;;;;;;;;;;;5.70;57.07;101624.66;10486439;28;19916;-80
2023/04/13 06:13:50;;;;;;;;;;;;;;;5.84;55.98;101616.38;10497602;28;19928;-80
2023/04/13 06:18:52;;;;;;;;;;;;;;;5.95;56.25;101619.22;10511988;28;19947;-80
2023/04/13 06:23:54;;;;;;;;;;;;;;;6.01;55.41;101642.00;10522212;28;19921;-81
2023/04/13 06:29:03;;;;;;;;;;;;;;;5.67;55.67;101667.88;10491993;28;19920;-80
2023/04/13 06:34:13;;;;;;;;;;;;;;;5.86;55.71;101647.78;10474252;28;20248;-80
2023/04/13 06:39:16;;;;;;;;;;;;;;;6.13;54.31;101632.00;10519176;28;19925;-82
2023/04/13 06:44:25;;;;;;;;;;;;;;;6.00;54.96;101656.69;10511206;28;19924;-82
2023/04/13 06:49:32;;;;;;;;;;;;;;;6.01;54.08;101666.50;10513919;28;19927;-81
2023/04/13 06:54:35;;;;;;;;;;;;;;;6.36;52.89;101669.47;10519808;28;19932;-81
2023/04/13 06:59:46;;;;;;;;;;;;;;;5.76;54.61;101663.81;10506533;28;19924;-81
2023/04/13 07:04:48;;;;;;;;;;;;;;;5.93;53.67;101655.94;10497870;28;19927;-81
2023/04/13 07:09:51;;;;;;;;;;;;;;;5.94;54.30;101657.59;10494079;28;20394;-81
2023/04/13 07:14:53;;;;;;;;;;;;;;;6.26;53.20;101680.09;10501276;28;19921;-82
2023/04/13 07:19:57;;;;;;;;;;;;;;;6.55;51.90;101681.19;10505651;28;19921;-81
2023/04/13 07:25:00;;;;;;;;;;;;;;;6.59;51.61;101663.31;10518666;28;19928;-81
2023/04/13 07:30:03;;;;;;;;;;;;;;;6.80;51.61;101692.84;10542595;28;19919;-79
2023/04/13 07:35:11;;;;;;;;;;;;;;;7.01;51.35;101698.84;10521408;28;19920;-79
2023/04/13 07:40:17;;;;;;;;;;;;;;;6.76;50.65;101668.94;10526973;28;19924;-81
2023/04/13 07:45:23;;;;;;;;;;;;;;;6.65;51.29;101719.69;10532806;28;20395;-80
2023/04/13 07:50:26;;;;;;;;;;;;;;;6.64;50.78;101685.28;10545900;28;19935;-80
2023/04/13 07:55:28;;;;;;;;;;;;;;;7.25;49.15;101698.69;10531395;28;19919;-81
2023/04/13 08:00:31;;;;;;;;;;;;;;;7.91;47.50;101710.44;10513243;28;19926;-81
2023/04/13 08:05:35;;;;;;;;;;;;;;;7.43;47.66;101700.50;10506856;28;19925;-79
2023/04/13 08:10:38;;;;;;;;;;;;;;;7.57;47.75;101703.84;10517741;28;19916;-79
2023/04/13 08:15:41;;;;;;;;;;;;;;;7.04;48.25;101736.59;10520372;28;20380;-81
2023/04/13 08:20:44;;;;;;;;;;;;;;;6.66;49.62;101721.34;10507795;28;19927;-79
2023/04/13 08:25:46;;;;;;;;;;;;;;;6.67;49.21;101780.28;10517332;28;19924;-78
2023/04/13 08:30:50;;;;;;;;;;;;;;;6.89;49.81;101731.53;10534245;28;19920;-80
2023/04/13 08:35:53;;;;;;;;;;;;;;;7.24;48.79;101715.28;10506269;28;20277;-78
2023/04/13 08:40:57;;;;;;;;;;;;;;;5.93;51.38;101724.88;10518466;28;19920;-79
2023/04/13 08:46:05;;;;;;;;;;;;;;;5.98;51.07;101726.91;10506957;28;19920;-78
2023/04/13 08:51:07;;;;;;;;;;;;;;;5.70;51.20;101719.97;10535164;28;19926;-78
2023/04/13 08:56:10;;;;;;;;;;;;;;;5.78;51.37;101713.44;10515907;28;19920;-78
2023/04/13 09:01:12;;;;;;;;;;;;;;;5.75;51.88;101735.69;10517138;28;19927;-80
2023/04/13 09:06:15;;;;;;;;;;;;;;;6.02;50.49;101728.94;10487817;28;20120;-79
2023/04/13 09:11:18;;;;;;;;;;;;;;;6.58;50.02;101721.63;10547312;28;19920;-79
2023/04/13 09:16:21;;;;;;;;;;;;;;;6.14;49.95;101717.31;10572971;28;19920;-79
2023/04/13 09:21:40;;;;;;;;;;;;;;;5.54;50.45;101725.16;10513089;28;19920;-79
2023/04/13 09:26:44;;;;;;;;;;;;;;;4.41;53.34;101739.34;10497954;28;19926;-80
2023/04/13 09:31:46;;;;;;;;;;;;;;;4.19;54.31;101767.84;10513526;28;19943;-80
2023/04/13 09:36:49;;;;;;;;;;;;;;;3.59;56.17;101759.69;10552483;28;20006;-79
2023/04/13 09:41:51;;;;;;;;;;;;;;;3.49;56.60;101796.44;10518653;28;19920;-79
2023/04/13 09:47:00;;;;;;;;;;;;;;;3.28;57.05;101762.16;10539005;28;19920;-79
2023/04/13 09:52:04;;;;;;;;;;;;;;;3.25;57.23;101809.50;10509985;28;20004;-82
2023/04/13 09:57:06;;;;;;;;;;;;;;;3.44;57.94;101760.94;10551751;28;20413;-80
2023/04/13 10:02:08;;;;;;;;;;;;;;;3.65;56.48;101784.34;10529261;28;19920;-79
2023/04/13 10:07:12;;;;;;;;;;;;;;;3.32;56.90;101763.44;10545380;28;20391;-79
2023/04/13 10:12:14;;;;;;;;;;;;;;;3.45;56.42;101773.44;10572452;28;19920;-80
2023/04/13 10:17:26;;;;;;;;;;;;;;;3.47;56.77;101774.06;10548956;28;19930;-80
2023/04/13 10:22:29;;;;;;;;;;;;;;;3.58;56.75;101770.75;10538986;28;19927;-78
2023/04/13 10:27:31;;;;;;;;;;;;;;;3.96;55.28;101775.56;10539017;28;19926;-79
2023/04/13 10:32:35;;;;;;;;;;;;;;;3.97;54.95;101790.81;10538170;28;19931;-80
2023/04/13 10:37:39;;;;;;;;;;;;;;;3.86;54.84;101776.84;10532518;28;19971;-79
2023/04/13 10:42:42;;;;;;;;;;;;;;;3.79;55.25;101759.69;10521214;28;20390;-80
2023/04/13 10:47:44;;;;;;;;;;;;;;;3.80;55.22;101772.22;10537059;28;19920;-81
2023/04/13 10:53:00;;;;;;;;;;;;;;;3.81;55.24;101779.31;10510289;28;19983;-78
2023/04/13 10:58:12;;;;;;;;;;;;;;;3.87;55.37;101778.50;10537204;28;19920;-78
2023/04/13 11:03:17;;;;;;;;;;;;;;;3.91;54.71;101790.63;10543917;28;19923;-78
2023/04/13 11:08:23;;;;;;;;;;;;;;;4.12;54.25;101780.56;10538715;28;19920;-79
2023/04/13 11:13:27;;;;;;;;;;;;;;;4.23;52.88;101780.78;10519282;28;19921;-80
2023/04/13 11:18:29;;;;;;;;;;;;;;;4.32;52.98;101773.22;10570500;28;19919;-78
2023/04/13 11:23:33;;;;;;;;;;;;;;;4.36;52.70;101804.38;10537015;28;19924;-80
2023/04/13 11:28:45;;;;;;;;;;;;;;;4.56;52.28;101806.22;10567703;28;19920;-79
2023/04/13 11:33:48;;;;;;;;;;;;;;;4.29;52.28;101779.09;10539735;28;19920;-79
2023/04/13 11:38:52;;;;;;;;;;;;;;;4.21;52.27;101811.91;10537149;28;19924;-79
2023/04/13 11:43:54;;;;;;;;;;;;;;;3.92;52.78;101814.00;10545181;28;19920;-78
2023/04/13 11:48:56;;;;;;;;;;;;;;;4.18;52.71;101779.75;10547050;28;19928;-77
2023/04/13 11:53:58;;;;;;;;;;;;;;;4.52;52.06;101776.75;10519768;28;19920;-78
2023/04/13 11:59:00;;;;;;;;;;;;;;;4.41;52.06;101785.56;10504701;28;19921;-78
2023/04/13 12:04:03;;;;;;;;;;;;;;;4.39;51.27;101787.66;10524871;28;19926;-79
2023/04/13 12:09:08;;;;;;;;;;;;;;;4.43;51.13;101775.31;10547042;28;19920;-78
2023/04/13 12:14:21;;;;;;;;;;;;;;;4.39;50.68;101775.94;10539238;28;19961;-78
2023/04/13 12:19:23;;;;;;;;;;;;;;;4.29;50.47;101808.13;10559459;28;19919;-79
2023/04/13 12:24:32;;;;;;;;;;;;;;;4.19;50.65;101803.16;10504816;28;20455;-77
2023/04/13 12:29:38;;;;;;;;;;;;;;;4.17;49.88;101780.78;10533397;28;19919;-80
2023/04/13 12:34:40;;;;;;;;;;;;;;;4.44;49.71;101797.88;10531019;28;19920;-81
2023/04/13 12:39:42;;;;;;;;;;;;;;;4.66;48.99;101776.69;10542986;28;19920;-81
2023/04/13 12:44:44;;;;;;;;;;;;;;;4.78;48.64;101783.16;10517131;28;20450;-79
2023/04/13 12:49:46;;;;;;;;;;;;;;;4.72;48.12;101779.41;10502847;28;19920;-80
2023/04/13 12:54:51;;;;;;;;;;;;;;;4.64;48.15;101773.34;10532784;28;19959;-85
2023/04/13 12:59:53;;;;;;;;;;;;;;;4.59;47.52;101792.19;10485439;28;20346;-79
2023/04/13 13:04:55;;;;;;;;;;;;;;;4.48;47.79;101772.78;10524459;28;19916;-81
2023/04/13 13:09:59;;;;;;;;;;;;;;;4.69;47.38;101754.53;10490290;28;19931;-78
2023/04/13 13:15:03;;;;;;;;;;;;;;;4.78;46.95;101755.94;10503412;28;19917;-80
2023/04/13 13:20:11;;;;;;;;;;;;;;;4.66;46.87;101760.38;10507418;28;20386;-79
2023/04/13 13:25:15;;;;;;;;;;;;;;;4.68;46.24;101831.69;10542347;28;19946;-79
2023/04/13 13:30:17;;;;;;;;;;;;;;;4.52;46.37;101751.47;10541600;28;19920;-80
2023/04/13 13:35:19;;;;;;;;;;;;;;;4.57;46.15;101770.66;10514563;28;19920;-80
2023/04/13 13:40:21;;;;;;;;;;;;;;;4.43;46.63;101797.03;10515056;28;20411;-79
2023/04/13 13:45:23;;;;;;;;;;;;;;;4.38;46.56;101812.31;10490114;28;19924;-79
2023/04/13 13:50:27;;;;;;;;;;;;;;;4.32;46.77;101761.53;10505705;28;19917;-79
2023/04/13 13:55:32;;;;;;;;;;;;;;;4.25;46.49;101777.84;10466853;28;19927;-79
2023/04/13 14:00:34;;;;;;;;;;;;;;;4.50;45.77;101813.31;10537300;28;19920;-80
2023/04/13 14:05:36;;;;;;;;;;;;;;;4.29;46.29;101757.34;10463405;28;19921;-79
2023/04/13 14:10:38;;;;;;;;;;;;;;;4.24;46.29;101806.06;10446349;28;20380;-80
2023/04/13 14:15:40;;;;;;;;;;;;;;;4.37;46.22;101780.75;10471257;28;19974;-81
2023/04/13 14:20:42;;;;;;;;;;;;;;;4.38;46.53;101766.97;10472929;28;19920;-79
2023/04/13 14:25:44;;;;;;;;;;;;;;;4.45;46.25;101785.97;10468468;28;20027;-79
2023/04/13 14:30:46;;;;;;;;;;;;;;;4.71;46.15;101777.75;10514168;28;19920;-78
2023/04/13 14:35:48;;;;;;;;;;;;;;;4.64;45.98;101803.25;10501110;28;19925;-80
2023/04/13 14:40:50;;;;;;;;;;;;;;;4.66;46.21;101803.88;10478431;28;19920;-80
2023/04/13 14:45:53;;;;;;;;;;;;;;;4.44;46.21;101798.72;10503462;28;20387;-79
2023/04/13 14:50:55;;;;;;;;;;;;;;;4.48;46.27;101802.66;10477264;28;19920;-79
2023/04/13 14:55:58;;;;;;;;;;;;;;;4.57;47.17;101805.19;10480164;28;19920;-81
2023/04/13 15:01:00;;;;;;;;;;;;;;;4.49;46.78;101781.75;10467163;28;19946;-84
2023/04/13 15:06:02;;;;;;;;;;;;;;;4.39;47.01;101836.56;10502751;28;19917;-80
2023/04/13 15:11:05;;;;;;;;;;;;;;;4.27;48.34;101812.94;10514570;28;19921;-84
2023/04/13 15:16:07;;;;;;;;;;;;;;;4.15;47.51;101812.75;10476772;28;20400;-82
2023/04/13 15:21:09;;;;;;;;;;;;;;;4.02;48.18;101793.75;10474670;28;19920;-78
2023/04/13 15:26:16;;;;;;;;;;;;;;;4.04;48.02;101799.81;10534221;28;19927;-80
2023/04/13 15:31:18;;;;;;;;;;;;;;;3.97;48.56;101798.97;10510209;28;19921;-78
2023/04/13 15:36:20;;;;;;;;;;;;;;;3.95;48.83;101818.19;10513861;28;19920;-80
2023/04/13 15:41:26;;;;;;;;;;;;;;;3.82;48.89;101839.91;10538439;28;19928;-80
2023/04/13 15:46:28;;;;;;;;;;;;;;;3.73;49.00;101847.41;10542377;28;19940;-80
2023/04/13 15:51:31;;;;;;;;;;;;;;;3.65;49.72;101820.47;10527982;28;19920;-78
2023/04/13 15:56:33;;;;;;;;;;;;;;;3.65;49.75;101815.03;10525003;28;19924;-80
2023/04/13 16:01:45;;;;;;;;;;;;;;;3.49;50.19;101815.44;10466411;28;19921;-78
2023/04/13 16:06:50;;;;;;;;;;;;;;;3.52;50.88;101817.72;10485853;28;19920;-80
2023/04/13 16:11:53;;;;;;;;;;;;;;;3.47;50.86;101793.06;10458037;28;20007;-78
2023/04/13 16:16:58;;;;;;;;;;;;;;;3.50;50.79;101815.22;10484702;28;19920;-79
2023/04/13 16:22:04;;;;;;;;;;;;;;;3.43;51.32;101821.66;10491167;28;19921;-80
2023/04/13 16:27:07;;;;;;;;;;;;;;;3.29;51.27;101808.06;10521318;28;19920;-79
2023/04/13 16:32:09;;;;;;;;;;;;;;;3.26;51.11;101824.75;10492119;28;19946;-78
2023/04/13 16:37:11;;;;;;;;;;;;;;;3.17;51.66;101844.13;10542463;28;19925;-79
2023/04/13 16:42:13;;;;;;;;;;;;;;;3.14;51.64;101853.50;10523872;28;19920;-79
2023/04/13 16:47:16;;;;;;;;;;;;;;;3.02;52.18;101834.25;10530452;28;19928;-78
2023/04/13 16:52:18;;;;;;;;;;;;;;;2.97;52.61;101895.56;10526472;28;20396;-77
2023/04/13 16:57:20;;;;;;;;;;;;;;;2.99;52.28;101840.09;10519684;28;19920;-78
2023/04/13 17:02:22;;;;;;;;;;;;;;;2.95;52.85;101865.06;10508586;28;19920;-78
2023/04/13 17:07:25;;;;;;;;;;;;;;;2.92;52.55;101860.06;10511609;28;20448;-78
2023/04/13 17:12:27;;;;;;;;;;;;;;;2.93;52.78;101856.31;10515612;28;19935;-79
2023/04/13 17:17:29;;;;;;;;;;;;;;;2.90;52.91;101873.81;10495154;28;19931;-79
2023/04/13 17:22:31;;;;;;;;;;;;;;;2.82;53.02;101901.09;10481513;28;19959;-78
2023/04/13 17:27:33;;;;;;;;;;;;;;;2.82;53.04;101887.56;10506611;28;19921;-79
2023/04/13 17:32:35;;;;;;;;;;;;;;;2.83;53.04;101877.53;10510816;28;20019;-79
2023/04/13 17:37:37;;;;;;;;;;;;;;;2.85;53.11;101879.00;10480971;28;20298;-77
2023/04/13 17:42:39;;;;;;;;;;;;;;;2.81;53.47;101923.81;10524645;28;19924;-78
2023/04/13 17:47:41;;;;;;;;;;;;;;;2.79;53.95;101887.97;10498441;28;20405;-77
2023/04/13 17:52:43;;;;;;;;;;;;;;;2.79;54.07;101873.56;10522902;28;19916;-78
2023/04/13 17:57:45;;;;;;;;;;;;;;;2.80;53.97;101876.06;10480733;28;19921;-79
2023/04/13 18:02:47;;;;;;;;;;;;;;;2.72;54.20;101923.13;10502954;28;19967;-79
2023/04/13 18:07:50;;;;;;;;;;;;;;;2.69;54.50;101890.16;10476550;28;20418;-79
2023/04/13 18:12:52;;;;;;;;;;;;;;;2.71;54.41;101915.19;10492706;28;19931;-80
2023/04/13 18:17:54;;;;;;;;;;;;;;;2.65;54.47;101906.00;10488698;28;19915;-79
2023/04/13 18:22:56;;;;;;;;;;;;;;;2.63;55.14;101920.78;10500705;28;19920;-78
2023/04/13 18:27:58;;;;;;;;;;;;;;;2.68;54.81;101929.97;10506990;28;20390;-79
2023/04/13 18:33:00;;;;;;;;;;;;;;;2.67;54.39;101944.56;10458853;28;19921;-77
2023/04/13 18:38:02;;;;;;;;;;;;;;;2.67;54.61;101912.06;10492546;28;20398;-78
2023/04/13 18:43:04;;;;;;;;;;;;;;;2.70;54.32;101919.78;10533679;28;20007;-79
2023/04/13 18:48:08;;;;;;;;;;;;;;;2.66;53.78;101921.22;10523447;28;19932;-78
2023/04/13 18:53:10;;;;;;;;;;;;;;;2.64;53.70;101926.00;10492261;28;19924;-78
2023/04/13 18:58:12;;;;;;;;;;;;;;;2.69;53.06;101941.66;10526561;28;20415;-78
2023/04/13 19:03:14;;;;;;;;;;;;;;;2.64;53.35;101980.19;10504974;28;19921;-80
2023/04/13 19:08:16;;;;;;;;;;;;;;;2.58;52.93;101972.84;10482891;28;19934;-77
2023/04/13 19:13:18;;;;;;;;;;;;;;;2.56;53.51;101963.22;10505256;28;20422;-77
2023/04/13 19:18:21;;;;;;;;;;;;;;;2.56;53.55;101958.66;10502255;28;20124;-77
2023/04/13 19:23:23;;;;;;;;;;;;;;;2.51;53.23;101969.25;10532520;28;19920;-77
2023/04/13 19:28:25;;;;;;;;;;;;;;;2.48;52.90;101980.47;10513579;28;19920;-77
2023/04/13 19:33:27;;;;;;;;;;;;;;;2.46;53.05;101985.25;10517791;28;20266;-78
2023/04/13 19:38:29;;;;;;;;;;;;;;;2.44;52.79;101964.81;10490281;28;19981;-80
2023/04/13 19:43:31;;;;;;;;;;;;;;;2.39;52.95;101979.75;10527396;28;20681;-82
2023/04/13 19:48:33;;;;;;;;;;;;;;;2.41;52.44;101993.09;10501034;28;19920;-78
2023/04/13 19:53:35;;;;;;;;;;;;;;;2.32;52.82;102022.22;10532721;28;19977;-78
2023/04/13 19:58:37;;;;;;;;;;;;;;;2.30;52.63;101986.34;10572735;28;19935;-77
2023/04/13 20:03:39;;;;;;;;;;;;;;;2.30;53.06;102015.31;10516523;28;19981;-78
2023/04/13 20:08:42;;;;;;;;;;;;;;;2.23;52.85;102000.84;10513340;28;19927;-77
2023/04/13 20:13:44;;;;;;;;;;;;;;;2.20;53.09;102006.66;10474984;28;20394;-78
2023/04/13 20:18:46;;;;;;;;;;;;;;;2.14;52.85;102002.84;10540887;28;19920;-77
2023/04/13 20:23:48;;;;;;;;;;;;;;;2.16;53.05;102002.66;10532563;28;20384;-76
2023/04/13 20:28:53;;;;;;;;;;;;;;;2.15;52.99;102011.81;10515551;28;19969;-77
2023/04/13 20:33:55;;;;;;;;;;;;;;;2.11;53.11;102020.31;10530137;28;19919;-78
2023/04/13 20:39:00;;;;;;;;;;;;;;;2.13;53.05;102022.84;10532039;28;19924;-78
2023/04/13 20:44:02;;;;;;;;;;;;;;;2.07;52.83;102001.94;10515687;28;20387;-78
2023/04/13 20:49:04;;;;;;;;;;;;;;;2.01;52.63;102025.19;10524093;28;19927;-78
2023/04/13 20:54:06;;;;;;;;;;;;;;;1.94;53.04;102027.00;10517654;28;19916;-77
2023/04/13 20:59:08;;;;;;;;;;;;;;;1.88;53.82;102013.38;10524272;28;19921;-78
2023/04/13 21:04:10;;;;;;;;;;;;;;;1.86;53.59;102010.84;10531995;28;19946;-77
2023/04/13 21:09:12;;;;;;;;;;;;;;;1.82;53.91;102025.81;10537139;28;19967;-78
2023/04/13 21:14:15;;;;;;;;;;;;;;;1.81;53.90;102040.38;10525243;28;19920;-77
2023/04/13 21:19:17;;;;;;;;;;;;;;;1.79;54.16;102034.31;10517696;28;20408;-76
2023/04/13 21:24:19;;;;;;;;;;;;;;;1.72;54.25;102027.97;10539150;28;19920;-78
2023/04/13 21:29:22;;;;;;;;;;;;;;;1.72;54.31;102038.78;10482424;28;19920;-78
2023/04/13 21:34:26;;;;;;;;;;;;;;;1.75;54.06;102038.44;10477722;28;19916;-79
2023/04/13 21:39:28;;;;;;;;;;;;;;;1.59;54.67;102053.00;10496776;28;19927;-78
2023/04/13 21:44:30;;;;;;;;;;;;;;;1.59;54.38;102053.00;10476688;28;19927;-78
2023/04/13 21:49:32;;;;;;;;;;;;;;;1.61;54.80;102058.22;10540533;28;20856;-79
2023/04/13 21:54:35;;;;;;;;;;;;;;;1.52;55.28;102055.59;10525620;28;20379;-78
2023/04/13 21:59:36;;;;;;;;;;;;;;;1.45;54.76;102046.56;10498269;28;19927;-78
2023/04/13 22:04:38;;;;;;;;;;;;;;;1.42;55.01;102054.22;10525605;28;19920;-78
2023/04/13 22:09:40;;;;;;;;;;;;;;;1.43;55.16;102067.53;10545703;28;19931;-78
2023/04/13 22:14:42;;;;;;;;;;;;;;;1.41;54.73;102072.31;10516781;28;19967;-78
2023/04/13 22:19:44;;;;;;;;;;;;;;;1.47;54.40;102063.44;10501566;28;19947;-78
2023/04/13 22:24:46;;;;;;;;;;;;;;;1.40;54.30;102070.63;10502192;28;19927;-77
2023/04/13 22:29:48;;;;;;;;;;;;;;;1.36;54.36;102066.59;10506514;28;21660;-78
2023/04/13 22:34:50;;;;;;;;;;;;;;;1.29;54.41;102083.75;10514875;28;19920;-78
2023/04/13 22:39:52;;;;;;;;;;;;;;;1.26;54.38;102076.84;10512076;28;19920;-78
2023/04/13 22:44:54;;;;;;;;;;;;;;;1.25;54.40;102063.53;10527731;28;19928;-78
2023/04/13 22:49:59;;;;;;;;;;;;;;;1.25;54.31;102082.44;10528723;28;19920;-78
2023/04/13 22:55:01;;;;;;;;;;;;;;;1.26;54.28;102084.97;10528154;28;19925;-77
2023/04/13 23:00:04;;;;;;;;;;;;;;;1.23;54.07;102089.91;10524074;28;19920;-78
2023/04/13 23:05:07;;;;;;;;;;;;;;;1.20;53.34;102061.34;10496375;28;19921;-78
2023/04/13 23:10:08;;;;;;;;;;;;;;;1.18;53.70;102083.16;10538415;28;19924;-77
2023/04/13 23:15:11;;;;;;;;;;;;;;;1.07;53.98;102077.38;10532052;28;19924;-78
2023/04/13 23:20:13;;;;;;;;;;;;;;;1.01;54.06;102076.22;10527549;28;20478;-78
2023/04/13 23:25:15;;;;;;;;;;;;;;;1.03;54.21;102068.78;10537970;28;20010;-77
2023/04/13 23:30:17;;;;;;;;;;;;;;;0.99;53.63;102080.16;10540818;28;19927;-77
2023/04/13 23:35:19;;;;;;;;;;;;;;;1.02;53.90;102090.59;10515468;28;19921;-78
2023/04/13 23:40:21;;;;;;;;;;;;;;;0.94;54.22;102096.06;10529149;28;19920;-78
2023/04/13 23:45:23;;;;;;;;;;;;;;;0.85;54.65;102079.06;10505643;28;20015;-77
2023/04/13 23:50:26;;;;;;;;;;;;;;;0.76;55.40;102089.13;10530558;28;19920;-77
2023/04/13 23:55:28;;;;;;;;;;;;;;;0.75;56.01;102086.59;10533620;28;19925;-78
